Time;durP1;ratioP1;P1;durP2;ratioP2;P2;SDS_P1;SDS_P2;PMS_P1;PMS_P2;Temp;Humidity;BMP_temperature;BMP_pressure;BME280_temperature;BME280_humidity;BME280_pressure;Samples;Min_cycle;Max_cycle;Signal;HPM_P1;HPM_P2
2021/05/26 00:00:03;;;;;;;0.20;0.20;;;3.30;99.90;;;;;;5071091;28;20179;-69
2021/05/26 00:02:29;;;;;;;1.00;1.00;;;3.30;99.90;;;;;;5088725;28;20204;-69
2021/05/26 00:04:56;;;;;;;0.95;0.95;;;3.20;99.90;;;;;;5088954;28;20183;-69
2021/05/26 00:07:22;;;;;;;1.27;1.27;;;3.30;99.90;;;;;;5089034;28;20148;-68
2021/05/26 00:09:48;;;;;;;0.55;0.55;;;3.50;99.90;;;;;;5087530;28;20164;-68
2021/05/26 00:12:14;;;;;;;0.13;0.13;;;3.80;99.90;;;;;;5087402;28;20358;-69
2021/05/26 00:14:40;;;;;;;0.50;0.50;;;4.00;99.90;;;;;;5081238;28;20532;-68
2021/05/26 00:17:06;;;;;;;0.30;0.30;;;4.10;99.90;;;;;;5087501;28;20169;-68
2021/05/26 00:19:32;;;;;;;0.45;0.45;;;4.20;99.90;;;;;;5087528;28;20167;-70
2021/05/26 00:21:58;;;;;;;0.25;0.25;;;4.10;99.90;;;;;;5101964;28;20199;-68
2021/05/26 00:24:24;;;;;;;0.10;0.10;;;4.10;99.90;;;;;;5090918;28;20207;-69
2021/05/26 00:26:50;;;;;;;0.38;0.38;;;4.10;99.90;;;;;;5109260;28;20156;-68
2021/05/26 00:29:15;;;;;;;1.10;0.77;;;4.10;99.90;;;;;;5092988;28;20257;-69
2021/05/26 00:31:41;;;;;;;0.15;0.15;;;4.00;99.90;;;;;;5112594;28;20217;-68
2021/05/26 00:34:08;;;;;;;0.47;0.47;;;4.00;99.90;;;;;;5094319;28;20171;-68
2021/05/26 00:36:34;;;;;;;0.65;0.40;;;4.00;99.90;;;;;;5094472;28;20202;-73
2021/05/26 00:39:00;;;;;;;0.35;0.35;;;3.80;99.90;;;;;;5112584;28;20187;-72
2021/05/26 00:41:30;;;;;;;0.22;0.22;;;3.90;99.90;;;;;;5112339;28;20198;-73
2021/05/26 00:43:56;;;;;;;0.80;0.60;;;3.90;99.90;;;;;;5094057;28;20219;-68
2021/05/26 00:46:22;;;;;;;0.73;0.73;;;3.90;99.90;;;;;;5094231;28;20205;-69
2021/05/26 00:48:50;;;;;;;0.40;0.40;;;3.90;99.90;;;;;;5094454;28;20274;-68
2021/05/26 00:51:16;;;;;;;0.75;0.43;;;3.80;99.90;;;;;;5094048;28;20656;-72
2021/05/26 00:53:42;;;;;;;0.20;0.20;;;3.60;99.90;;;;;;5093935;28;20175;-73
2021/05/26 00:56:09;;;;;;;0.35;0.35;;;3.50;99.90;;;;;;5094100;28;20174;-68
2021/05/26 00:58:35;;;;;;;0.35;0.35;;;3.60;99.90;;;;;;5094029;28;20175;-73
2021/05/26 01:01:02;;;;;;;0.40;0.40;;;3.50;99.90;;;;;;5094256;28;20167;-73
2021/05/26 01:03:29;;;;;;;0.30;0.30;;;3.60;99.90;;;;;;5094102;28;20191;-73
2021/05/26 01:05:55;;;;;;;0.50;0.50;;;3.50;99.90;;;;;;5094185;28;20171;-73
2021/05/26 01:08:21;;;;;;;0.10;0.10;;;3.40;99.90;;;;;;5094160;28;20167;-73
2021/05/26 01:10:47;;;;;;;2.00;1.45;;;3.60;99.90;;;;;;5111847;28;20222;-72
2021/05/26 01:13:14;;;;;;;0.30;0.30;;;3.60;99.90;;;;;;5093738;28;20210;-67
2021/05/26 01:15:40;;;;;;;0.20;0.20;;;3.60;99.90;;;;;;5112453;28;20161;-72
2021/05/26 01:18:24;;;;;;;0.20;0.20;;;3.70;99.90;;;;;;5093646;28;20175;-70
2021/05/26 01:20:51;;;;;;;0.38;0.38;;;3.80;99.90;;;;;;5093423;28;20174;-67
2021/05/26 01:23:17;;;;;;;0.20;0.20;;;3.70;99.90;;;;;;5111528;28;20231;-73
2021/05/26 01:25:46;;;;;;;0.20;0.20;;;3.70;99.90;;;;;;5093508;28;20167;-73
2021/05/26 01:28:13;;;;;;;1.73;1.63;;;3.80;99.90;;;;;;5093535;28;20227;-73
2021/05/26 01:30:39;;;;;;;0.50;0.50;;;3.80;99.90;;;;;;5093321;28;20163;-71
2021/05/26 01:33:06;;;;;;;0.50;0.50;;;3.80;99.90;;;;;;5093250;28;20195;-73
2021/05/26 01:35:32;;;;;;;0.20;0.20;;;3.70;99.90;;;;;;5093204;28;20190;-73
2021/05/26 01:37:57;;;;;;;0.10;0.10;;;3.50;99.90;;;;;;5093300;28;20167;-73
2021/05/26 01:40:23;;;;;;;0.73;0.73;;;3.60;99.90;;;;;;5092186;28;20175;-72
2021/05/26 01:42:49;;;;;;;0.40;0.40;;;3.60;99.90;;;;;;5111111;28;20348;-73
2021/05/26 01:45:17;;;;;;;0.60;0.60;;;3.60;99.90;;;;;;5111125;28;20190;-73
2021/05/26 01:47:48;;;;;;;0.57;0.55;;;3.60;99.90;;;;;;5093200;28;20542;-70
2021/05/26 01:50:21;;;;;;;0.73;0.73;;;3.70;99.90;;;;;;5092860;28;20206;-68
2021/05/26 01:53:02;;;;;;;0.20;0.20;;;3.70;99.90;;;;;;5092179;28;20195;-72
2021/05/26 01:55:31;;;;;;;0.20;0.20;;;3.60;99.90;;;;;;5092774;28;20174;-73
2021/05/26 01:57:57;;;;;;;1.23;0.63;;;3.50;99.90;;;;;;5110949;28;20151;-72
2021/05/26 02:00:24;;;;;;;1.10;1.10;;;3.40;99.90;;;;;;5092686;28;20172;-68
2021/05/26 02:02:50;;;;;;;0.10;0.10;;;3.30;99.90;;;;;;5110725;28;20226;-67
2021/05/26 02:05:17;;;;;;;0.30;0.30;;;3.30;99.90;;;;;;5110841;28;20525;-67
2021/05/26 02:07:44;;;;;;;0.50;0.50;;;3.40;99.90;;;;;;5092515;28;20204;-69
2021/05/26 02:10:15;;;;;;;0.20;0.20;;;3.30;99.90;;;;;;5092779;28;20219;-72
2021/05/26 02:12:43;;;;;;;1.60;1.50;;;3.20;99.90;;;;;;5092360;28;20552;-73
2021/05/26 02:15:12;;;;;;;4.65;1.23;;;3.30;99.90;;;;;;5092348;28;20184;-70
2021/05/26 02:17:38;;;;;;;0.20;0.20;;;3.40;99.90;;;;;;5092532;28;20260;-69
2021/05/26 02:20:06;;;;;;;0.20;0.20;;;3.50;99.90;;;;;;5110614;28;20198;-70
2021/05/26 02:22:34;;;;;;;0.20;0.20;;;3.50;99.90;;;;;;5092031;28;20203;-68
2021/05/26 02:25:02;;;;;;;0.10;0.10;;;3.50;99.90;;;;;;5092176;28;20183;-68
2021/05/26 02:27:28;;;;;;;0.30;0.30;;;3.50;99.90;;;;;;5092133;28;20167;-68
2021/05/26 02:29:54;;;;;;;0.22;0.22;;;3.50;99.90;;;;;;5092164;28;20209;-72
2021/05/26 02:32:22;;;;;;;0.30;0.30;;;3.50;99.90;;;;;;5091984;28;20194;-73
2021/05/26 02:34:48;;;;;;;0.20;0.20;;;3.50;99.90;;;;;;5092129;28;20715;-72
2021/05/26 02:37:14;;;;;;;0.10;0.10;;;3.50;99.90;;;;;;5110277;28;20300;-73
2021/05/26 02:39:40;;;;;;;0.40;0.40;;;3.40;99.90;;;;;;5091972;28;20202;-72
2021/05/26 02:42:06;;;;;;;0.22;0.22;;;3.40;99.90;;;;;;5091621;28;20210;-71
2021/05/26 02:44:31;;;;;;;0.20;0.20;;;3.40;99.90;;;;;;5089380;28;20171;-72
2021/05/26 02:46:57;;;;;;;0.38;0.38;;;3.40;99.90;;;;;;5088274;28;20171;-73
2021/05/26 02:49:23;;;;;;;0.20;0.20;;;3.30;99.90;;;;;;5088545;28;20211;-73
2021/05/26 02:51:49;;;;;;;0.10;0.10;;;3.50;99.90;;;;;;5106299;28;20219;-73
2021/05/26 02:54:15;;;;;;;0.28;0.28;;;3.40;99.90;;;;;;5107389;28;20155;-73
2021/05/26 02:56:41;;;;;;;0.45;0.45;;;3.60;99.90;;;;;;5089112;28;20178;-72
2021/05/26 02:59:10;;;;;;;0.25;0.25;;;3.60;99.90;;;;;;5089549;28;20175;-72
2021/05/26 03:01:36;;;;;;;0.10;0.10;;;3.60;99.90;;;;;;5109735;28;20190;-73
2021/05/26 03:04:03;;;;;;;0.63;0.63;;;3.60;99.90;;;;;;5109492;28;20188;-73
2021/05/26 03:06:29;;;;;;;0.17;0.17;;;3.70;99.90;;;;;;5109657;28;20156;-73
2021/05/26 03:08:56;;;;;;;0.13;0.13;;;3.80;99.90;;;;;;5109590;28;20171;-73
2021/05/26 03:11:22;;;;;;;0.75;0.75;;;3.90;99.90;;;;;;5091246;28;20235;-73
2021/05/26 03:13:48;;;;;;;0.50;0.50;;;3.90;99.90;;;;;;5109450;28;20246;-72
2021/05/26 03:16:14;;;;;;;0.88;0.88;;;3.90;99.90;;;;;;5109405;28;20211;-73
2021/05/26 03:18:41;;;;;;;0.30;0.30;;;3.90;99.90;;;;;;5109245;28;20166;-73
2021/05/26 03:21:08;;;;;;;0.30;0.30;;;4.00;99.90;;;;;;5091156;28;20172;-72
2021/05/26 03:23:34;;;;;;;0.35;0.35;;;4.00;99.90;;;;;;5109274;28;20191;-73
2021/05/26 03:26:00;;;;;;;0.65;0.60;;;4.00;99.90;;;;;;5091244;28;20182;-73
2021/05/26 03:28:26;;;;;;;0.45;0.45;;;4.10;99.90;;;;;;5109341;28;20242;-73
2021/05/26 03:30:51;;;;;;;0.57;0.52;;;4.10;99.90;;;;;;5109212;28;20170;-73
2021/05/26 03:33:19;;;;;;;0.73;0.73;;;4.10;99.90;;;;;;5109098;28;20195;-72
2021/05/26 03:35:46;;;;;;;0.38;0.38;;;4.10;99.90;;;;;;5090997;28;20171;-73
2021/05/26 03:38:12;;;;;;;0.22;0.22;;;4.10;99.90;;;;;;5091063;28;20179;-73
2021/05/26 03:40:38;;;;;;;0.60;0.60;;;4.20;99.90;;;;;;5109096;28;20164;-73
2021/05/26 03:43:05;;;;;;;0.10;0.10;;;4.20;99.90;;;;;;5108652;28;20219;-72
2021/05/26 03:45:32;;;;;;;0.30;0.30;;;4.20;99.90;;;;;;5109191;28;20167;-73
2021/05/26 03:47:58;;;;;;;0.20;0.20;;;4.20;99.90;;;;;;5109143;28;20163;-73
2021/05/26 03:50:25;;;;;;;0.10;0.10;;;4.30;99.90;;;;;;5108709;28;20163;-72
2021/05/26 03:52:51;;;;;;;0.17;0.17;;;4.30;99.90;;;;;;5108588;28;20187;-73
2021/05/26 03:55:19;;;;;;;0.20;0.20;;;4.30;99.90;;;;;;5108776;28;20187;-73
2021/05/26 03:57:46;;;;;;;0.20;0.20;;;4.50;99.90;;;;;;5109042;28;20160;-73
2021/05/26 04:00:14;;;;;;;0.40;0.40;;;4.50;99.90;;;;;;5108956;28;20159;-72
2021/05/26 04:02:40;;;;;;;0.13;0.13;;;4.40;99.90;;;;;;5090370;28;20211;-72
2021/05/26 04:05:07;;;;;;;0.20;0.20;;;4.30;99.90;;;;;;5094239;28;20182;-73
2021/05/26 04:07:33;;;;;;;0.20;0.20;;;4.30;99.90;;;;;;5094445;28;20179;-73
2021/05/26 04:09:59;;;;;;;0.30;0.30;;;4.30;99.90;;;;;;5112691;28;20162;-72
2021/05/26 04:12:27;;;;;;;0.55;0.55;;;4.30;99.90;;;;;;5112788;28;20195;-72
2021/05/26 04:14:54;;;;;;;0.73;0.73;;;4.30;99.90;;;;;;5112545;28;20608;-73
2021/05/26 04:17:21;;;;;;;0.73;0.73;;;4.30;99.90;;;;;;5112371;28;20167;-73
2021/05/26 04:19:46;;;;;;;0.20;0.20;;;4.40;99.90;;;;;;5112647;28;20159;-72
2021/05/26 04:22:12;;;;;;;0.35;0.35;;;4.60;99.90;;;;;;5094025;28;20743;-73
2021/05/26 04:24:38;;;;;;;0.20;0.20;;;4.70;99.90;;;;;;5112545;28;20155;-73
2021/05/26 04:27:04;;;;;;;0.30;0.30;;;4.80;99.90;;;;;;5112270;28;20162;-73
2021/05/26 04:29:31;;;;;;;0.10;0.10;;;4.80;99.90;;;;;;5112467;28;20171;-72
2021/05/26 04:31:57;;;;;;;0.40;0.40;;;4.70;99.90;;;;;;5112156;28;20195;-72
2021/05/26 04:34:24;;;;;;;0.40;0.40;;;4.70;99.90;;;;;;5112465;28;20167;-72
2021/05/26 04:36:50;;;;;;;0.98;0.98;;;4.70;99.90;;;;;;5112265;28;20159;-72
2021/05/26 04:39:17;;;;;;;0.30;0.30;;;4.70;99.90;;;;;;5093937;28;20199;-72
2021/05/26 04:41:43;;;;;;;0.22;0.22;;;4.70;99.90;;;;;;5112047;28;20198;-72
2021/05/26 04:44:10;;;;;;;0.20;0.20;;;4.90;99.90;;;;;;5111681;28;20214;-72
2021/05/26 04:46:36;;;;;;;0.30;0.30;;;5.00;99.90;;;;;;5093632;28;20167;-72
2021/05/26 04:49:03;;;;;;;0.52;0.52;;;5.00;99.90;;;;;;5111717;28;20246;-72
2021/05/26 04:51:29;;;;;;;0.32;0.32;;;5.00;99.90;;;;;;5128495;28;20234;-72
2021/05/26 04:53:55;;;;;;;0.98;0.38;;;5.00;99.90;;;;;;5131989;28;20247;-72
2021/05/26 04:56:21;;;;;;;0.40;0.40;;;5.10;99.90;;;;;;5132123;28;20222;-72
2021/05/26 04:58:47;;;;;;;0.20;0.20;;;5.10;99.90;;;;;;5131925;28;20192;-72
2021/05/26 05:01:13;;;;;;;3.33;2.60;;;5.20;99.90;;;;;;5131813;28;20166;-72
2021/05/26 05:03:39;;;;;;;0.88;0.88;;;5.40;99.90;;;;;;5131789;28;20191;-72
2021/05/26 05:06:05;;;;;;;0.82;0.63;;;5.60;99.90;;;;;;5112682;28;20163;-73
2021/05/26 05:08:32;;;;;;;0.25;0.25;;;5.80;99.90;;;;;;5111294;28;20162;-73
2021/05/26 05:10:59;;;;;;;0.80;0.80;;;5.80;99.90;;;;;;5111411;28;20167;-73
2021/05/26 05:13:24;;;;;;;0.40;0.40;;;6.00;99.90;;;;;;5111348;28;20202;-73
2021/05/26 05:15:50;;;;;;;0.17;0.17;;;6.00;99.90;;;;;;5108552;28;20167;-73
2021/05/26 05:18:16;;;;;;;0.20;0.20;;;5.60;99.90;;;;;;5091093;28;20188;-73
2021/05/26 05:20:42;;;;;;;0.10;0.10;;;5.50;99.90;;;;;;5091063;28;20191;-73
2021/05/26 05:23:09;;;;;;;0.95;0.70;;;5.50;99.90;;;;;;5090824;28;20210;-73
2021/05/26 05:25:34;;;;;;;1.30;1.20;;;5.60;99.90;;;;;;5072452;28;20172;-73
2021/05/26 05:28:00;;;;;;;1.08;1.08;;;5.60;99.90;;;;;;5095851;28;20268;-73
2021/05/26 05:30:27;;;;;;;0.10;0.10;;;5.70;99.90;;;;;;5099705;28;20168;-72
2021/05/26 05:32:53;;;;;;;0.50;0.50;;;6.00;99.90;;;;;;5099835;28;20212;-72
2021/05/26 05:35:19;;;;;;;0.47;0.47;;;6.20;99.90;;;;;;5098798;28;20168;-73
2021/05/26 05:37:45;;;;;;;0.52;0.52;;;6.30;99.90;;;;;;5096521;28;20230;-73
2021/05/26 05:40:11;;;;;;;0.47;0.47;;;6.70;99.90;;;;;;5088750;28;20175;-73
2021/05/26 05:42:38;;;;;;;0.10;0.10;;;6.80;99.90;;;;;;5068878;28;20232;-73
2021/05/26 05:45:06;;;;;;;0.30;0.30;;;6.80;99.90;;;;;;5050793;28;20201;-74
2021/05/26 05:47:34;;;;;;;0.80;0.80;;;6.50;99.90;;;;;;5049751;28;20185;-74
2021/05/26 05:50:00;;;;;;;0.30;0.30;;;6.50;99.90;;;;;;5050700;28;20149;-74
2021/05/26 05:52:26;;;;;;;0.20;0.20;;;6.60;99.90;;;;;;5050144;28;20193;-73
2021/05/26 05:54:52;;;;;;;1.15;1.10;;;6.70;99.90;;;;;;5050815;28;20165;-73
2021/05/26 05:57:18;;;;;;;1.25;1.15;;;6.70;99.90;;;;;;5051101;28;20157;-74
2021/05/26 05:59:44;;;;;;;0.40;0.40;;;7.00;99.90;;;;;;5050685;28;20270;-74
2021/05/26 06:02:10;;;;;;;1.02;0.93;;;7.50;99.90;;;;;;5049488;28;20263;-73
2021/05/26 06:04:37;;;;;;;0.65;0.65;;;7.80;99.90;;;;;;5050497;28;20161;-74
2021/05/26 06:07:02;;;;;;;0.50;0.50;;;8.20;99.90;;;;;;5050398;28;20187;-73
2021/05/26 06:09:28;;;;;;;0.25;0.25;;;8.70;99.90;;;;;;5050188;28;20193;-73
2021/05/26 06:11:56;;;;;;;1.77;1.67;;;9.30;99.90;;;;;;5054848;28;20188;-73
2021/05/26 06:14:22;;;;;;;0.20;0.20;;;10.10;99.90;;;;;;5069887;28;20181;-73
2021/05/26 06:16:48;;;;;;;1.38;1.27;;;10.60;99.90;;;;;;5070186;28;20184;-72
2021/05/26 06:19:14;;;;;;;1.42;1.33;;;11.10;99.90;;;;;;5069933;28;20165;-73
2021/05/26 06:21:40;;;;;;;0.10;0.10;;;12.10;99.90;;;;;;5069819;28;20275;-73
2021/05/26 06:24:07;;;;;;;0.52;0.52;;;12.90;99.90;;;;;;5068752;28;20232;-73
2021/05/26 06:26:33;;;;;;;0.60;0.60;;;14.20;99.90;;;;;;5069259;28;20157;-73
2021/05/26 06:29:03;;;;;;;1.95;1.85;;;14.70;99.90;;;;;;5068353;28;20195;-73
2021/05/26 06:31:30;;;;;;;0.20;0.20;;;15.60;99.90;;;;;;5069511;28;20182;-73
2021/05/26 06:33:56;;;;;;;0.55;0.55;;;16.60;99.90;;;;;;5068024;28;20192;-73
2021/05/26 06:36:23;;;;;;;0.32;0.30;;;16.80;99.90;;;;;;5069849;28;20160;-73
2021/05/26 06:38:49;;;;;;;0.85;0.65;;;15.80;99.90;;;;;;5069422;28;20207;-73
2021/05/26 06:41:15;;;;;;;0.65;0.65;;;15.50;99.90;;;;;;5069421;28;20161;-73
2021/05/26 06:43:41;;;;;;;0.35;0.35;;;14.00;99.90;;;;;;5082327;28;20220;-72
2021/05/26 06:46:06;;;;;;;0.57;0.57;;;12.90;99.90;;;;;;5089647;28;20179;-73
2021/05/26 06:48:32;;;;;;;0.63;0.63;;;13.40;99.90;;;;;;5089460;28;20214;-73
2021/05/26 06:50:58;;;;;;;2.05;1.05;;;14.10;99.90;;;;;;5089377;28;20228;-73
2021/05/26 06:53:25;;;;;;;0.40;0.40;;;14.90;99.90;;;;;;5088249;28;20176;-73
2021/05/26 06:55:53;;;;;;;2.33;1.00;;;15.00;99.90;;;;;;5088186;28;20184;-73
2021/05/26 06:58:19;;;;;;;0.55;0.55;;;14.50;99.90;;;;;;5088009;28;20245;-73
2021/05/26 07:00:45;;;;;;;0.13;0.13;;;15.20;99.90;;;;;;5089204;28;20179;-73
2021/05/26 07:03:11;;;;;;;0.55;0.55;;;16.20;99.90;;;;;;5088342;28;20195;-73
2021/05/26 07:05:38;;;;;;;0.38;0.32;;;17.00;99.90;;;;;;5089064;28;20236;-73
2021/05/26 07:08:04;;;;;;;0.57;0.43;;;17.50;99.90;;;;;;5089001;28;20210;-73
2021/05/26 07:10:30;;;;;;;0.17;0.17;;;18.50;99.90;;;;;;5089479;28;20186;-73
2021/05/26 07:12:55;;;;;;;1.88;1.63;;;19.30;99.90;;;;;;5087404;28;20172;-73
2021/05/26 07:15:21;;;;;;;4.22;1.08;;;20.10;99.90;;;;;;5088154;28;20195;-73
2021/05/26 07:17:47;;;;;;;0.30;0.30;;;20.60;99.90;;;;;;5089169;28;20171;-73
2021/05/26 07:20:14;;;;;;;0.35;0.35;;;21.30;99.90;;;;;;5089226;28;20167;-73
2021/05/26 07:22:41;;;;;;;1.27;1.02;;;21.90;99.90;;;;;;5089224;28;20190;-73
2021/05/26 07:25:08;;;;;;;0.20;0.20;;;21.70;99.90;;;;;;5089039;28;20183;-73
2021/05/26 07:27:36;;;;;;;4.85;1.30;;;22.50;99.90;;;;;;5089122;28;20152;-73
2021/05/26 07:30:03;;;;;;;0.68;0.68;;;23.10;99.90;;;;;;5087737;28;20187;-73
2021/05/26 07:32:29;;;;;;;0.70;0.70;;;22.70;99.90;;;;;;5089072;28;20186;-73
2021/05/26 07:34:55;;;;;;;0.47;0.47;;;23.70;99.90;;;;;;5088963;28;20195;-73
2021/05/26 07:37:20;;;;;;;0.68;0.68;;;22.60;99.90;;;;;;5089003;28;20171;-73
2021/05/26 07:39:46;;;;;;;1.05;0.98;;;21.70;99.90;;;;;;5092100;28;20166;-73
2021/05/26 07:42:14;;;;;;;0.43;0.40;;;21.40;99.90;;;;;;5093592;28;20648;-73
2021/05/26 07:44:41;;;;;;;0.85;0.85;;;21.70;99.90;;;;;;5113397;28;20163;-73
2021/05/26 07:47:07;;;;;;;2.20;1.02;;;22.10;99.90;;;;;;5095050;28;20217;-73
2021/05/26 07:49:33;;;;;;;0.73;0.73;;;23.30;99.90;;;;;;5113323;28;20171;-73
2021/05/26 07:52:08;;;;;;;1.00;0.52;;;24.30;99.90;;;;;;5113342;28;20168;-73
2021/05/26 07:54:34;;;;;;;12.52;1.17;;;23.60;99.90;;;;;;5113038;28;20180;-73
2021/05/26 07:57:01;;;;;;;1.38;0.80;;;23.30;99.90;;;;;;5113279;28;20215;-73
2021/05/26 07:59:28;;;;;;;0.57;0.52;;;24.10;99.90;;;;;;5113176;28;20242;-73
2021/05/26 08:01:54;;;;;;;1.58;1.10;;;24.20;99.90;;;;;;5113121;28;20206;-73
2021/05/26 08:04:20;;;;;;;2.08;0.90;;;23.50;99.90;;;;;;5094811;28;20170;-73
2021/05/26 08:06:47;;;;;;;3.10;1.20;;;23.60;99.90;;;;;;5094628;28;20218;-73
2021/05/26 08:09:13;;;;;;;0.50;0.50;;;23.50;99.90;;;;;;5112829;28;20314;-73
2021/05/26 08:11:40;;;;;;;0.25;0.25;;;24.50;99.90;;;;;;5112988;28;20159;-73
2021/05/26 08:14:06;;;;;;;0.70;0.70;;;23.60;99.90;;;;;;5112832;28;20200;-73
2021/05/26 08:16:32;;;;;;;1.40;0.93;;;24.20;99.90;;;;;;5112602;28;20202;-73
2021/05/26 08:18:58;;;;;;;0.50;0.50;;;24.40;99.90;;;;;;5094435;28;20181;-73
2021/05/26 08:21:24;;;;;;;9.38;0.30;;;24.10;99.90;;;;;;5112703;28;20252;-74
2021/05/26 08:23:49;;;;;;;1.20;0.45;;;25.40;99.90;;;;;;5112643;28;20155;-74
2021/05/26 08:26:22;;;;;;;0.32;0.32;;;24.00;99.90;;;;;;5112562;28;20220;-73
2021/05/26 08:28:50;;;;;;;0.20;0.20;;;24.00;99.90;;;;;;5112736;28;20677;-74
2021/05/26 08:31:16;;;;;;;0.88;0.60;;;24.30;99.90;;;;;;5112624;28;20152;-74
2021/05/26 08:33:43;;;;;;;0.35;0.35;;;24.90;99.90;;;;;;5112546;28;20151;-73
2021/05/26 08:36:10;;;;;;;0.52;0.45;;;25.00;99.90;;;;;;5112374;28;20220;-73
2021/05/26 08:38:38;;;;;;;0.38;0.38;;;25.40;99.90;;;;;;5093776;28;20635;-73
2021/05/26 08:41:05;;;;;;;0.17;0.17;;;24.80;99.90;;;;;;5112221;28;20231;-73
2021/05/26 08:43:33;;;;;;;0.13;0.13;;;24.80;99.90;;;;;;5093613;28;20222;-74
2021/05/26 08:46:02;;;;;;;1.70;0.70;;;24.80;99.90;;;;;;5112107;28;20189;-73
2021/05/26 08:48:30;;;;;;;2.55;1.13;;;23.60;99.90;;;;;;5112025;28;20219;-73
2021/05/26 08:50:57;;;;;;;0.25;0.25;;;23.40;99.90;;;;;;5093472;28;20182;-73
2021/05/26 08:53:24;;;;;;;0.30;0.30;;;24.00;99.90;;;;;;5112152;28;20155;-73
2021/05/26 08:55:51;;;;;;;0.10;0.10;;;25.10;99.90;;;;;;5112147;28;20190;-73
2021/05/26 08:58:18;;;;;;;0.10;0.10;;;24.90;99.90;;;;;;5093649;28;20202;-73
2021/05/26 09:00:44;;;;;;;4.72;0.80;;;22.60;99.90;;;;;;5093528;28;20205;-73
2021/05/26 09:03:10;;;;;;;0.30;0.30;;;21.30;99.90;;;;;;5111681;28;20201;-73
2021/05/26 09:05:37;;;;;;;0.00;0.00;;;21.40;99.90;;;;;;5111823;28;20212;-72
2021/05/26 09:08:29;;;;;;;0.10;0.10;;;22.60;99.90;;;;;;5111568;28;20186;-72
2021/05/26 09:10:58;;;;;;;0.17;0.17;;;22.40;99.90;;;;;;5088919;28;20217;-73
2021/05/26 09:13:38;;;;;;;0.20;0.20;;;22.60;99.90;;;;;;5093167;28;20191;-72
2021/05/26 09:16:09;;;;;;;0.65;0.60;;;24.20;99.90;;;;;;5111703;28;20190;-72
2021/05/26 09:19:01;;;;;;;0.20;0.20;;;24.40;99.90;;;;;;5111646;28;20151;-73
2021/05/26 09:21:43;;;;;;;0.20;0.20;;;23.40;99.90;;;;;;5111170;28;20150;-73
2021/05/26 09:24:20;;;;;;;0.25;0.15;;;24.40;99.90;;;;;;5111381;28;20223;-73
2021/05/26 09:26:53;;;;;;;0.20;0.20;;;24.20;99.90;;;;;;5111523;28;20187;-73
2021/05/26 09:29:35;;;;;;;0.45;0.43;;;24.50;99.90;;;;;;5111274;28;20147;-73
2021/05/26 09:32:11;;;;;;;1.23;0.75;;;23.60;99.90;;;;;;5110904;28;20163;-73
2021/05/26 09:34:46;;;;;;;0.10;0.10;;;22.70;99.90;;;;;;5111354;28;20163;-73
2021/05/26 09:37:14;;;;;;;1.85;0.30;;;22.70;99.90;;;;;;5111158;28;20151;-73
2021/05/26 09:39:49;;;;;;;0.10;0.10;;;22.00;99.90;;;;;;5093039;28;20170;-72
2021/05/26 09:42:36;;;;;;;0.25;0.25;;;21.50;99.90;;;;;;5092395;28;20206;-73
2021/05/26 09:45:16;;;;;;;0.10;0.10;;;21.40;99.90;;;;;;5110982;28;20190;-72
2021/05/26 09:48:03;;;;;;;0.03;0.03;;;21.50;99.90;;;;;;5110942;28;20162;-72
2021/05/26 09:50:34;;;;;;;0.00;0.00;;;20.80;99.90;;;;;;5110780;28;20241;-73
2021/05/26 09:53:03;;;;;;;2.17;0.95;;;21.20;99.90;;;;;;5108064;28;20175;-73
2021/05/26 09:55:31;;;;;;;0.15;0.15;;;21.50;99.90;;;;;;5099261;28;20531;-73
2021/05/26 09:57:58;;;;;;;0.35;0.35;;;21.90;99.90;;;;;;5084580;28;20167;-73
2021/05/26 10:00:26;;;;;;;0.00;0.00;;;21.90;99.90;;;;;;5110563;28;20159;-73
2021/05/26 10:02:52;;;;;;;0.75;0.32;;;22.00;99.90;;;;;;5074269;28;20195;-73
2021/05/26 10:05:21;;;;;;;0.30;0.30;;;21.40;99.90;;;;;;5090406;28;20668;-73
2021/05/26 10:07:54;;;;;;;0.63;0.20;;;21.60;99.90;;;;;;5090151;28;20182;-73
2021/05/26 10:10:22;;;;;;;0.10;0.10;;;21.60;99.90;;;;;;5080816;28;20167;-73
2021/05/26 10:12:53;;;;;;;0.25;0.25;;;21.40;99.90;;;;;;5110626;28;20226;-73
2021/05/26 10:15:21;;;;;;;18.27;0.50;;;22.10;99.90;;;;;;5110377;28;20717;-73
2021/05/26 10:17:50;;;;;;;0.20;0.20;;;22.60;99.90;;;;;;5092110;28;20227;-73
2021/05/26 10:20:37;;;;;;;1.55;1.05;;;23.50;99.90;;;;;;5110519;28;20151;-73
2021/05/26 10:23:05;;;;;;;0.10;0.10;;;23.60;99.90;;;;;;5109155;28;20210;-73
2021/05/26 10:25:32;;;;;;;0.00;0.00;;;24.10;99.90;;;;;;5110012;28;20182;-73
2021/05/26 10:27:59;;;;;;;0.20;0.20;;;23.20;99.90;;;;;;5078705;28;20167;-72
2021/05/26 10:30:28;;;;;;;0.10;0.10;;;23.50;99.90;;;;;;5071823;28;20193;-73
2021/05/26 10:33:01;;;;;;;7.43;0.45;;;23.80;99.90;;;;;;5089569;28;20225;-73
2021/05/26 10:35:30;;;;;;;0.10;0.10;;;23.60;98.90;;;;;;5071860;28;20700;-73
2021/05/26 10:38:05;;;;;;;0.15;0.15;;;24.10;99.90;;;;;;5089613;28;20209;-72
2021/05/26 10:40:35;;;;;;;0.10;0.10;;;24.60;99.40;;;;;;5089695;28;20216;-72
2021/05/26 10:43:17;;;;;;;0.10;0.10;;;25.60;99.30;;;;;;5089410;28;20218;-73
2021/05/26 10:45:45;;;;;;;1.65;0.55;;;25.30;97.80;;;;;;5089511;28;20250;-73
2021/05/26 10:48:11;;;;;;;0.10;0.10;;;24.50;99.40;;;;;;5089436;28;20229;-72
2021/05/26 10:50:49;;;;;;;0.10;0.10;;;23.00;99.90;;;;;;5089548;28;20190;-73
2021/05/26 10:53:17;;;;;;;0.10;0.10;;;23.40;99.90;;;;;;5096372;28;20182;-72
2021/05/26 10:55:44;;;;;;;0.25;0.25;;;22.90;99.90;;;;;;5109709;28;20212;-73
2021/05/26 10:58:12;;;;;;;3.35;1.17;;;23.10;99.90;;;;;;5091614;28;20261;-72
2021/05/26 11:00:40;;;;;;;0.10;0.10;;;23.90;98.40;;;;;;5109392;28;20163;-72
2021/05/26 11:03:24;;;;;;;0.10;0.10;;;22.20;99.90;;;;;;5109617;28;20617;-72
2021/05/26 11:06:13;;;;;;;0.00;0.00;;;21.20;99.90;;;;;;5109625;28;20246;-72
2021/05/26 11:08:47;;;;;;;0.30;0.30;;;21.10;99.90;;;;;;5109331;28;20177;-72
2021/05/26 11:11:25;;;;;;;0.20;0.20;;;22.30;99.90;;;;;;5109618;28;20531;-72
2021/05/26 11:14:14;;;;;;;0.10;0.10;;;23.70;99.90;;;;;;5109284;28;20173;-72
2021/05/26 11:16:46;;;;;;;0.00;0.00;;;23.30;99.90;;;;;;5109132;28;20282;-73
2021/05/26 11:19:30;;;;;;;0.20;0.20;;;22.30;99.90;;;;;;5109570;28;20150;-73
2021/05/26 11:22:06;;;;;;;0.20;0.20;;;22.20;99.90;;;;;;5109237;28;20190;-73
2021/05/26 11:24:41;;;;;;;0.10;0.10;;;21.60;99.90;;;;;;5091083;28;20206;-73
2021/05/26 11:27:22;;;;;;;0.00;0.00;;;21.60;99.90;;;;;;5109343;28;20150;-72
2021/05/26 11:29:50;;;;;;;0.10;0.10;;;21.80;99.90;;;;;;5109141;28;20159;-72
2021/05/26 11:32:24;;;;;;;0.10;0.10;;;21.00;99.90;;;;;;5091324;28;20202;-73
2021/05/26 11:34:53;;;;;;;0.10;0.10;;;21.00;99.90;;;;;;5109111;28;20218;-73
2021/05/26 11:37:36;;;;;;;0.30;0.30;;;22.00;99.90;;;;;;5109288;28;20181;-73
2021/05/26 11:40:25;;;;;;;0.10;0.10;;;22.80;99.90;;;;;;5109160;28;20655;-72
2021/05/26 11:42:52;;;;;;;1.48;1.38;;;23.20;99.90;;;;;;5108610;28;20305;-73
2021/05/26 11:45:18;;;;;;;0.98;0.75;;;23.00;99.90;;;;;;5090831;28;20670;-73
2021/05/26 11:47:52;;;;;;;0.10;0.10;;;22.00;99.90;;;;;;5090785;28;20162;-70
2021/05/26 11:50:21;;;;;;;0.20;0.20;;;21.50;99.90;;;;;;5090880;28;20171;-70
2021/05/26 11:52:51;;;;;;;0.55;0.47;;;21.40;99.90;;;;;;5108784;28;20519;-70
2021/05/26 11:55:23;;;;;;;0.00;0.00;;;21.80;99.90;;;;;;5108835;28;20253;-70
2021/05/26 11:57:51;;;;;;;0.10;0.05;;;22.50;99.90;;;;;;5108644;28;20178;-70
2021/05/26 12:00:24;;;;;;;0.40;0.40;;;22.30;99.90;;;;;;5108965;28;20170;-69
2021/05/26 12:03:01;;;;;;;0.13;0.13;;;22.30;99.90;;;;;;5108755;28;20198;-69
2021/05/26 12:05:47;;;;;;;0.00;0.00;;;22.80;99.90;;;;;;5108760;28;20210;-69
2021/05/26 12:08:20;;;;;;;0.20;0.20;;;22.80;99.90;;;;;;5108895;28;20147;-68
2021/05/26 12:10:50;;;;;;;0.20;0.20;;;21.50;99.90;;;;;;5108744;28;20163;-69
2021/05/26 12:13:23;;;;;;;0.70;0.40;;;20.40;99.90;;;;;;5108712;28;20226;-69
2021/05/26 12:15:50;;;;;;;0.10;0.10;;;19.30;99.90;;;;;;5108533;28;20712;-70
2021/05/26 12:18:16;;;;;;;0.10;0.10;;;19.00;99.90;;;;;;5108590;28;20156;-68
2021/05/26 12:20:51;;;;;;;0.47;0.47;;;18.80;99.90;;;;;;5108443;28;20159;-68
2021/05/26 12:23:59;;;;;;;0.20;0.20;;;18.80;99.90;;;;;;5108748;28;20258;-68
2021/05/26 12:26:27;;;;;;;0.40;0.40;;;18.80;99.90;;;;;;5010693;28;20343;-70
2021/05/26 12:28:55;;;;;;;0.10;0.10;;;19.30;99.90;;;;;;5010626;28;20199;-69
2021/05/26 12:31:22;;;;;;;1.20;0.73;;;19.80;99.90;;;;;;5010378;28;20255;-69
2021/05/26 12:33:52;;;;;;;0.10;0.10;;;19.90;99.90;;;;;;5010119;28;20187;-70
2021/05/26 12:36:21;;;;;;;0.30;0.30;;;19.70;99.90;;;;;;5010257;28;20190;-69
2021/05/26 12:38:48;;;;;;;0.57;0.20;;;19.50;99.90;;;;;;4993921;28;20186;-69
2021/05/26 12:41:39;;;;;;;0.63;0.52;;;19.10;99.90;;;;;;5010304;28;20190;-69
2021/05/26 12:44:08;;;;;;;0.28;0.28;;;19.10;99.90;;;;;;5009813;28;20237;-70
2021/05/26 12:46:34;;;;;;;0.00;0.00;;;19.00;99.90;;;;;;5009984;28;20215;-69
2021/05/26 12:49:00;;;;;;;0.10;0.10;;;18.90;99.90;;;;;;4993559;28;20181;-69
2021/05/26 12:51:26;;;;;;;0.30;0.30;;;18.90;99.90;;;;;;5009960;28;20171;-69
2021/05/26 12:53:58;;;;;;;0.20;0.20;;;19.10;99.90;;;;;;5009615;28;20218;-70
2021/05/26 12:56:26;;;;;;;0.52;0.52;;;19.30;99.90;;;;;;5009750;28;20202;-69
2021/05/26 12:58:52;;;;;;;0.10;0.10;;;19.50;99.90;;;;;;4991470;28;20206;-69